OKE-NW GA US current weather conditions

sailwx.info

Wind from 251 at 0 knots gusting 1

Air temperature 21.1° C
Dewpoint 21.1° C

Last reported at 2020-Aug-09 06:10 UTC.
Time now 2020-Aug-09 07:40 UTC

Location: N 30°59' W 082°24'.
View on Google Maps.

See reports from other nearby stations

  
Tides and Currents Weather Stations Pressure Air Temp Water Temp Dewpoint Dewpoint Depression Visibility Wind Speed Wind Dir Waves Ship Positions
date/time (UTC)wind fromknots sea level pressurealtimeterstation pressurevisibilityair tempwater tempwave heightnotes
2020-Aug-09 06:10 251 0 gusting 1 21.1
2020-Aug-09 05:10 059 0 gusting 1 21.1
2020-Aug-09 04:10 224 0 gusting 1 21.7
2020-Aug-09 03:10 062 0 gusting 2 22.2
2020-Aug-09 02:10 22.8
2020-Aug-09 01:10 137 0 gusting 14 22.8
2020-Aug-09 00:10 349 6 gusting 16 26.1
2020-Aug-08 23:10 208 3 gusting 9 31.1
2020-Aug-08 22:10 220 4 gusting 7 33.3
2020-Aug-08 21:10 228 5 gusting 8 34.4
2020-Aug-08 20:10 210 3 gusting 8 33.3
2020-Aug-08 19:10 216 3 gusting 9 33.9
2020-Aug-08 18:10 248 3 gusting 8 33.3
2020-Aug-08 17:10 161 1 gusting 6 32.2
2020-Aug-08 16:10 191 1 gusting 5 32.2
2020-Aug-08 15:10 261 2 gusting 6 30.0
2020-Aug-08 14:10 242 2 gusting 6 28.3
2020-Aug-08 13:10 215 2 gusting 5 26.1
2020-Aug-08 12:10 212 0 gusting 2 23.3
2020-Aug-08 11:10 20.6
2020-Aug-08 10:10 20.0
2020-Aug-08 09:10 20.0
2020-Aug-08 08:10 20.6
2020-Aug-08 07:10 21.1
2020-Aug-08 06:10 157 0 gusting 2 21.7
2020-Aug-08 05:10 121 0 gusting 2 22.2
2020-Aug-08 04:10 22.8
2020-Aug-08 03:10 197 0 gusting 3 22.8
2020-Aug-08 02:10 210 0 gusting 4 23.3
2020-Aug-08 01:10 209 2 gusting 4 23.9
2020-Aug-08 00:10 182 1 gusting 6 25.0
2020-Aug-07 23:10 178 2 gusting 7 24.4
2020-Aug-07 22:10 150 2 gusting 8 24.4
2020-Aug-07 21:10 089 3 gusting 6 25.0
2020-Aug-07 20:10 019 1 gusting 4 25.0
2020-Aug-07 19:10 278 2 gusting 14 25.6
2020-Aug-07 18:10 234 2 gusting 7 32.8
2020-Aug-07 17:10 235 2 gusting 6 32.8
2020-Aug-07 16:10 201 2 gusting 6 32.2
2020-Aug-07 15:10 186 1 gusting 6 31.7
2020-Aug-07 14:10 294 2 gusting 5 29.4
2020-Aug-07 13:10 272 1 gusting 3 27.2
2020-Aug-07 12:10 23.9
2020-Aug-07 11:10 21.7
2020-Aug-07 10:10 21.7
2020-Aug-07 09:10 22.2
2020-Aug-07 08:10 153 0 gusting 2 21.7
2020-Aug-07 07:10 181 0 gusting 2 21.1